Time;durP1;ratioP1;P1;durP2;ratioP2;P2;SDS_P1;SDS_P2;PMS_P1;PMS_P2;Temp;Humidity;BMP_temperature;BMP_pressure;BME280_temperature;BME280_humidity;BME280_pressure;Samples;Min_cycle;Max_cycle;Signal;HPM_P1;HPM_P2
2021/06/06 00:00:23;;;;;;;4.15;3.65;;;19.00;99.90;;;;;;5092930;28;20024;-78
2021/06/06 00:02:49;;;;;;;4.80;2.72;;;19.00;99.90;;;;;;5093128;28;20024;-78
2021/06/06 00:05:16;;;;;;;2.95;2.67;;;19.00;99.90;;;;;;5093380;28;20027;-78
2021/06/06 00:07:42;;;;;;;4.13;2.88;;;18.90;99.90;;;;;;5093224;28;20550;-79
2021/06/06 00:10:09;;;;;;;2.75;2.55;;;18.80;99.90;;;;;;5092905;28;20028;-78
2021/06/06 00:12:35;;;;;;;3.88;2.70;;;18.80;99.90;;;;;;5092944;28;20370;-79
2021/06/06 00:15:04;;;;;;;2.75;2.55;;;18.70;99.90;;;;;;5094057;28;20110;-80
2021/06/06 00:17:30;;;;;;;2.80;2.10;;;18.60;99.90;;;;;;5092939;28;20021;-79
2021/06/06 00:19:56;;;;;;;4.47;2.70;;;18.60;99.90;;;;;;5092850;28;20028;-79
2021/06/06 00:22:21;;;;;;;3.25;2.50;;;18.60;99.90;;;;;;5094246;28;20397;-80
2021/06/06 00:24:47;;;;;;;2.80;2.60;;;18.50;99.90;;;;;;5092822;28;20081;-78
2021/06/06 00:27:13;;;;;;;3.85;2.50;;;18.50;99.90;;;;;;5092851;28;20027;-79
2021/06/06 00:29:38;;;;;;;2.58;2.38;;;18.30;99.90;;;;;;5092570;28;20032;-79
2021/06/06 00:32:04;;;;;;;2.90;2.60;;;18.30;99.90;;;;;;5092647;28;20430;-81
2021/06/06 00:34:31;;;;;;;3.45;2.35;;;18.30;99.90;;;;;;5092604;28;20039;-78
2021/06/06 00:36:56;;;;;;;4.30;2.47;;;18.20;99.90;;;;;;5092817;28;20016;-79
2021/06/06 00:39:22;;;;;;;2.53;2.30;;;18.20;99.90;;;;;;5091868;28;20031;-78
2021/06/06 00:41:50;;;;;;;2.80;2.60;;;18.10;99.90;;;;;;5092612;28;20488;-78
2021/06/06 00:44:18;;;;;;;3.05;2.50;;;18.10;99.90;;;;;;5093934;28;20020;-79
2021/06/06 00:46:44;;;;;;;2.88;2.67;;;18.10;99.90;;;;;;5093640;28;20058;-78
2021/06/06 00:49:10;;;;;;;3.70;2.85;;;18.00;99.90;;;;;;5092595;28;20024;-79
2021/06/06 00:51:46;;;;;;;3.55;2.90;;;18.00;99.90;;;;;;5092350;28;20024;-81
2021/06/06 00:54:11;;;;;;;2.70;2.30;;;18.00;99.90;;;;;;5092203;28;20098;-78
2021/06/06 00:56:38;;;;;;;3.42;2.70;;;18.10;99.90;;;;;;5092456;28;20058;-78
2021/06/06 00:59:05;;;;;;;2.85;2.65;;;18.00;99.90;;;;;;5092184;28;20099;-79
2021/06/06 01:01:30;;;;;;;3.60;2.67;;;17.90;99.90;;;;;;5093085;28;20020;-78
2021/06/06 01:03:58;;;;;;;4.57;2.65;;;17.90;99.90;;;;;;5092297;28;20028;-79
2021/06/06 01:06:34;;;;;;;4.30;3.03;;;17.90;99.90;;;;;;5093586;28;20016;-81
2021/06/06 01:09:03;;;;;;;5.15;2.40;;;17.80;99.90;;;;;;5093386;28;20020;-78
2021/06/06 01:11:52;;;;;;;3.00;2.70;;;17.70;99.90;;;;;;5091770;28;20048;-80
2021/06/06 01:14:34;;;;;;;3.00;2.70;;;17.60;99.90;;;;;;5092182;28;20032;-77
2021/06/06 01:17:06;;;;;;;3.95;2.70;;;17.50;99.90;;;;;;5091811;28;20024;-81
2021/06/06 01:20:07;;;;;;;3.47;2.35;;;17.40;99.90;;;;;;5091959;28;20770;-78
2021/06/06 01:22:52;;;;;;;4.15;3.08;;;17.40;99.90;;;;;;5093284;28;20035;-79
2021/06/06 01:25:28;;;;;;;;;;;17.30;99.90;;;;;;5092338;28;20377;-78
2021/06/06 01:28:05;;;;;;;4.25;2.67;;;17.30;99.90;;;;;;5093209;28;19908;-78
2021/06/06 01:30:35;;;;;;;2.60;2.38;;;17.30;99.90;;;;;;5093139;28;20541;-78
2021/06/06 01:33:12;;;;;;;3.55;2.70;;;17.20;99.90;;;;;;5091661;28;20020;-79
2021/06/06 01:35:45;;;;;;;4.57;2.83;;;17.20;99.90;;;;;;5093165;28;20128;-79
2021/06/06 01:38:20;;;;;;;4.10;3.15;;;17.20;99.90;;;;;;5091398;28;20078;-78
2021/06/06 01:40:48;;;;;;;3.05;2.75;;;17.20;99.90;;;;;;5091317;28;20031;-79
2021/06/06 01:43:20;;;;;;;3.13;2.83;;;17.20;99.90;;;;;;5091682;28;20428;-79
2021/06/06 01:45:58;;;;;;;3.10;2.80;;;17.20;99.90;;;;;;5091397;28;20032;-77
2021/06/06 01:48:24;;;;;;;2.85;2.42;;;17.30;99.90;;;;;;5091448;28;20035;-81
2021/06/06 01:50:56;;;;;;;2.95;2.67;;;17.30;99.90;;;;;;5091266;28;20028;-81
2021/06/06 01:53:23;;;;;;;3.10;2.90;;;17.30;99.90;;;;;;5092663;28;20020;-79
2021/06/06 01:55:55;;;;;;;2.90;2.67;;;17.20;99.90;;;;;;5092378;28;20044;-79
2021/06/06 01:58:22;;;;;;;3.13;2.83;;;17.20;99.90;;;;;;5092550;28;20486;-77
2021/06/06 02:00:47;;;;;;;4.22;3.42;;;17.20;99.90;;;;;;5092701;28;20036;-79
2021/06/06 02:03:14;;;;;;;4.30;3.63;;;17.30;99.90;;;;;;5091433;28;20370;-78
2021/06/06 02:05:40;;;;;;;3.40;3.03;;;17.20;99.90;;;;;;5091231;28;20123;-78
2021/06/06 02:08:10;;;;;;;3.33;3.03;;;17.30;99.90;;;;;;5091090;28;20115;-78
2021/06/06 02:10:45;;;;;;;3.30;3.00;;;17.30;99.90;;;;;;5091324;28;20035;-82
2021/06/06 02:13:16;;;;;;;3.75;3.20;;;17.30;99.90;;;;;;5091476;28;20228;-79
2021/06/06 02:15:42;;;;;;;5.88;3.08;;;17.30;99.90;;;;;;5091075;28;20172;-78
2021/06/06 02:18:08;;;;;;;3.45;3.15;;;17.30;99.90;;;;;;5092523;28;20480;-78
2021/06/06 02:20:42;;;;;;;7.97;2.90;;;17.30;99.90;;;;;;5092307;28;20020;-78
2021/06/06 02:23:09;;;;;;;3.85;3.10;;;17.40;99.90;;;;;;5091092;28;20494;-78
2021/06/06 02:25:37;;;;;;;3.63;2.83;;;17.40;99.90;;;;;;5091048;28;20028;-77
2021/06/06 02:28:12;;;;;;;3.45;3.03;;;17.40;99.90;;;;;;5090852;28;20027;-78
2021/06/06 02:30:41;;;;;;;2.90;2.60;;;17.40;99.90;;;;;;5092585;28;20012;-81
2021/06/06 02:33:23;;;;;;;3.70;2.80;;;17.40;99.90;;;;;;5091281;28;20253;-79
2021/06/06 02:35:52;;;;;;;3.30;2.92;;;17.40;99.90;;;;;;5091189;28;20500;-77
2021/06/06 02:38:53;;;;;;;3.90;3.25;;;17.40;99.90;;;;;;5092345;28;20027;-79
2021/06/06 02:41:31;;;;;;;3.10;2.80;;;17.40;99.90;;;;;;5052264;28;20043;-78
2021/06/06 02:44:12;;;;;;;4.43;2.90;;;17.40;99.90;;;;;;5092295;28;20028;-78
2021/06/06 02:46:39;;;;;;;4.25;2.97;;;17.40;99.90;;;;;;5090894;28;20024;-80
2021/06/06 02:49:35;;;;;;;3.95;3.38;;;17.40;99.90;;;;;;5090584;28;20382;-77
2021/06/06 02:52:03;;;;;;;3.90;3.50;;;17.40;99.90;;;;;;5090402;28;20467;-78
2021/06/06 02:54:40;;;;;;;4.85;3.97;;;17.40;99.90;;;;;;5091886;28;20100;-80
2021/06/06 02:57:10;;;;;;;4.30;4.00;;;17.40;99.90;;;;;;5090650;28;20020;-78
2021/06/06 02:59:45;;;;;;;4.85;3.80;;;17.50;99.90;;;;;;5090907;28;20024;-78
2021/06/06 03:02:14;;;;;;;4.30;3.83;;;17.50;99.90;;;;;;5092194;28;20063;-80
2021/06/06 03:04:45;;;;;;;4.45;3.75;;;17.50;99.90;;;;;;5095660;28;20032;-77
2021/06/06 03:07:37;;;;;;;4.10;3.80;;;17.50;99.90;;;;;;5095930;28;20020;-78
2021/06/06 03:10:07;;;;;;;4.53;3.88;;;17.40;99.90;;;;;;5093685;28;20058;-78
2021/06/06 03:12:33;;;;;;;4.28;3.88;;;17.40;99.90;;;;;;5095452;28;20104;-79
2021/06/06 03:15:01;;;;;;;4.32;3.92;;;17.40;99.90;;;;;;5094174;28;20382;-77
2021/06/06 03:17:32;;;;;;;7.38;4.05;;;17.50;99.90;;;;;;5095211;28;20016;-79
2021/06/06 03:20:02;;;;;;;5.13;4.68;;;17.50;99.90;;;;;;5094028;28;20024;-79
2021/06/06 03:22:31;;;;;;;4.72;4.32;;;17.50;99.90;;;;;;5093886;28;20085;-78
2021/06/06 03:25:00;;;;;;;5.40;4.90;;;17.50;99.90;;;;;;5094148;28;20070;-79
2021/06/06 03:27:32;;;;;;;5.15;4.60;;;17.50;99.90;;;;;;5093760;28;20096;-78
2021/06/06 03:30:04;;;;;;;4.82;4.38;;;17.50;99.90;;;;;;5093972;28;20016;-77
2021/06/06 03:32:35;;;;;;;6.03;4.38;;;17.50;99.90;;;;;;5093310;28;20096;-77
2021/06/06 03:35:00;;;;;;;6.30;4.22;;;17.60;99.90;;;;;;5095187;28;20028;-78
2021/06/06 03:37:26;;;;;;;4.18;3.78;;;17.70;99.90;;;;;;5093539;28;20077;-79
2021/06/06 03:39:55;;;;;;;3.70;3.40;;;17.70;99.90;;;;;;5093424;28;20016;-78
2021/06/06 03:42:20;;;;;;;3.53;3.22;;;17.70;99.90;;;;;;5093099;28;20104;-78
2021/06/06 03:44:46;;;;;;;2.88;2.67;;;17.70;99.90;;;;;;5094834;28;20423;-78
2021/06/06 03:47:12;;;;;;;3.53;3.00;;;17.70;99.90;;;;;;5094598;28;20024;-78
2021/06/06 03:49:38;;;;;;;6.13;3.25;;;17.80;99.90;;;;;;5094349;28;20058;-79
2021/06/06 03:52:05;;;;;;;3.85;3.55;;;17.80;99.90;;;;;;5093083;28;20044;-78
2021/06/06 03:54:31;;;;;;;3.83;3.40;;;17.80;99.90;;;;;;5094633;28;20473;-78
2021/06/06 03:56:57;;;;;;;10.90;8.55;;;17.90;99.90;;;;;;5094686;28;20095;-79
2021/06/06 03:59:23;;;;;;;14.48;10.30;;;17.90;99.90;;;;;;5093427;28;20051;-78
2021/06/06 04:01:50;;;;;;;11.25;8.45;;;17.90;99.90;;;;;;5094559;28;20462;-79
2021/06/06 04:04:16;;;;;;;10.70;7.60;;;18.00;99.90;;;;;;5093363;28;20047;-79
2021/06/06 04:06:42;;;;;;;9.68;8.38;;;18.10;99.90;;;;;;5093272;28;20467;-79
2021/06/06 04:09:08;;;;;;;8.00;6.90;;;18.10;99.90;;;;;;5093175;28;20033;-81
2021/06/06 04:11:35;;;;;;;7.55;6.00;;;18.10;99.90;;;;;;5094524;28;20032;-78
2021/06/06 04:14:01;;;;;;;8.55;5.30;;;18.10;99.90;;;;;;5093087;28;20032;-78
2021/06/06 04:16:27;;;;;;;5.40;4.47;;;18.10;99.90;;;;;;5093144;28;20044;-79
2021/06/06 04:18:53;;;;;;;5.82;5.30;;;18.20;99.90;;;;;;5093153;28;20444;-80
2021/06/06 04:21:22;;;;;;;6.75;4.80;;;18.10;99.90;;;;;;5093106;28;20103;-79
2021/06/06 04:23:48;;;;;;;5.25;4.75;;;18.20;99.90;;;;;;5092754;28;20024;-78
2021/06/06 04:26:14;;;;;;;5.65;5.03;;;18.30;99.90;;;;;;5092977;28;20031;-78
2021/06/06 04:28:40;;;;;;;4.55;4.25;;;18.20;99.90;;;;;;5093964;28;20027;-79
2021/06/06 04:31:07;;;;;;;4.35;3.95;;;18.30;99.90;;;;;;5092743;28;20032;-81
2021/06/06 04:33:33;;;;;;;2.88;2.63;;;18.20;99.90;;;;;;5095157;28;20020;-80
2021/06/06 04:35:59;;;;;;;4.25;3.90;;;18.90;99.90;;;;;;5096114;28;20062;-79
2021/06/06 04:38:28;;;;;;;5.57;3.75;;;19.10;99.90;;;;;;5095612;28;20471;-79
2021/06/06 04:40:57;;;;;;;6.40;3.70;;;19.10;99.90;;;;;;5092792;28;20032;-80
2021/06/06 04:43:23;;;;;;;6.10;4.32;;;19.60;99.90;;;;;;5093654;28;20028;-79
2021/06/06 04:45:49;;;;;;;4.13;3.70;;;19.50;99.90;;;;;;5093557;28;20012;-80
2021/06/06 04:48:24;;;;;;;31.48;21.67;;;19.30;99.90;;;;;;5093558;28;20466;-80
2021/06/06 04:50:51;;;;;;;36.83;30.98;;;19.60;99.90;;;;;;5096394;28;20030;-80
2021/06/06 04:53:18;;;;;;;12.65;9.45;;;19.50;99.90;;;;;;5092264;28;20069;-79
2021/06/06 04:55:44;;;;;;;18.10;16.42;;;19.50;99.90;;;;;;5092288;28;20035;-79
2021/06/06 04:58:19;;;;;;;7.72;7.03;;;19.60;99.90;;;;;;5092707;28;20028;-79
2021/06/06 05:00:45;;;;;;;10.27;4.90;;;19.30;99.90;;;;;;5092561;28;20119;-79
2021/06/06 05:03:12;;;;;;;5.85;5.18;;;19.20;99.90;;;;;;5092508;28;20032;-79
2021/06/06 05:05:39;;;;;;;5.57;4.85;;;19.30;99.90;;;;;;5093672;28;20025;-78
2021/06/06 05:08:05;;;;;;;8.75;6.35;;;19.40;99.90;;;;;;5092250;28;20032;-79
2021/06/06 05:10:34;;;;;;;10.73;7.43;;;19.50;99.90;;;;;;5092147;28;20021;-79
2021/06/06 05:13:00;;;;;;;8.20;6.70;;;19.30;99.90;;;;;;5092657;28;20032;-78
2021/06/06 05:15:26;;;;;;;10.07;5.80;;;19.20;99.90;;;;;;5092181;28;20050;-79
2021/06/06 05:17:53;;;;;;;8.00;6.57;;;18.90;99.90;;;;;;5092535;28;20107;-81
2021/06/06 05:20:23;;;;;;;8.63;6.32;;;18.80;99.90;;;;;;5093846;28;20137;-78
2021/06/06 05:22:49;;;;;;;10.00;6.18;;;18.70;99.90;;;;;;5092378;28;20020;-79
2021/06/06 05:25:15;;;;;;;8.70;7.65;;;18.60;99.90;;;;;;5091814;28;20371;-79
2021/06/06 05:27:41;;;;;;;19.23;17.17;;;19.20;99.90;;;;;;5091636;28;20015;-78
2021/06/06 05:30:10;;;;;;;8.93;6.32;;;18.90;99.90;;;;;;5091811;28;20034;-80
2021/06/06 05:32:36;;;;;;;9.30;6.78;;;18.60;99.90;;;;;;5091707;28;20016;-79
2021/06/06 05:35:02;;;;;;;15.20;7.00;;;18.60;99.90;;;;;;5091980;28;20104;-79
2021/06/06 05:37:28;;;;;;;7.90;5.97;;;18.70;99.90;;;;;;5091968;28;20417;-80
2021/06/06 05:39:54;;;;;;;9.45;6.68;;;19.00;99.90;;;;;;5092634;28;20028;-80
2021/06/06 05:42:20;;;;;;;9.38;6.70;;;18.90;99.90;;;;;;5091985;28;20473;-79
2021/06/06 05:44:46;;;;;;;7.38;5.35;;;18.70;99.90;;;;;;5092994;28;20032;-80
2021/06/06 05:47:11;;;;;;;12.80;7.00;;;18.80;99.90;;;;;;5092080;28;20363;-80
2021/06/06 05:49:37;;;;;;;10.60;5.95;;;19.00;99.90;;;;;;5091668;28;20558;-81
2021/06/06 05:52:04;;;;;;;8.43;6.57;;;18.90;99.90;;;;;;5092225;28;20020;-82
2021/06/06 05:54:30;;;;;;;9.63;6.55;;;19.20;99.90;;;;;;5091976;28;20044;-82
2021/06/06 05:56:55;;;;;;;9.10;6.05;;;19.10;99.90;;;;;;5091831;28;20020;-79
2021/06/06 05:59:21;;;;;;;6.80;5.53;;;18.90;99.90;;;;;;5091755;28;20804;-79
2021/06/06 06:01:47;;;;;;;5.90;5.07;;;19.30;99.90;;;;;;5091885;28;20112;-79
2021/06/06 06:04:13;;;;;;;6.07;5.38;;;19.50;99.90;;;;;;5091727;28;20454;-79
2021/06/06 06:06:38;;;;;;;8.10;6.60;;;19.30;99.90;;;;;;5091351;28;20027;-79
2021/06/06 06:09:05;;;;;;;7.88;7.07;;;19.00;99.90;;;;;;5090936;28;20024;-81
2021/06/06 06:11:31;;;;;;;8.20;7.40;;;18.80;99.90;;;;;;5091175;28;20115;-79
2021/06/06 06:13:57;;;;;;;10.77;7.13;;;18.60;99.90;;;;;;5091781;28;20085;-81
2021/06/06 06:16:27;;;;;;;12.20;8.18;;;18.50;99.90;;;;;;5092122;28;20028;-79
2021/06/06 06:18:54;;;;;;;14.38;7.82;;;18.50;99.90;;;;;;5091753;28;20059;-81
2021/06/06 06:21:22;;;;;;;10.13;9.18;;;18.40;99.90;;;;;;5092692;28;20552;-79
2021/06/06 06:23:47;;;;;;;8.50;7.20;;;18.40;99.90;;;;;;5092218;28;20028;-78
2021/06/06 06:26:13;;;;;;;8.80;6.85;;;18.50;99.90;;;;;;5090999;28;20501;-77
2021/06/06 06:28:40;;;;;;;7.47;6.72;;;18.50;99.90;;;;;;5091330;28;20535;-79
2021/06/06 06:31:06;;;;;;;8.63;7.82;;;18.40;99.90;;;;;;5092077;28;20466;-81
2021/06/06 06:33:31;;;;;;;10.90;6.78;;;18.60;99.90;;;;;;5092105;28;20115;-80
2021/06/06 06:35:57;;;;;;;8.07;6.53;;;18.60;99.90;;;;;;5092997;28;20087;-80
2021/06/06 06:38:25;;;;;;;7.80;6.43;;;18.60;99.90;;;;;;5097154;28;20459;-80
2021/06/06 06:40:51;;;;;;;8.02;7.32;;;18.60;99.90;;;;;;5096098;28;20016;-79
2021/06/06 06:43:17;;;;;;;9.15;7.30;;;18.60;99.90;;;;;;5095992;28;20031;-80
2021/06/06 06:45:44;;;;;;;9.35;8.00;;;18.70;99.90;;;;;;5095602;28;20437;-84
2021/06/06 06:48:14;;;;;;;7.55;6.75;;;18.70;99.90;;;;;;5095567;28;20038;-79
2021/06/06 06:50:40;;;;;;;8.27;7.07;;;18.90;99.90;;;;;;5095437;28;20029;-79
2021/06/06 06:55:44;;;;;;;9.73;8.13;;;19.00;99.90;;;;;;5127585;27;20689;-81
2021/06/06 06:58:10;;;;;;;9.40;8.38;;;19.10;99.90;;;;;;5110518;28;20028;-79
2021/06/06 07:00:42;;;;;;;8.00;7.20;;;19.10;99.90;;;;;;5110036;28;20030;-79
2021/06/06 07:03:10;;;;;;;8.73;7.32;;;19.20;99.90;;;;;;5110689;28;20081;-78
2021/06/06 07:06:27;;;;;;;8.07;7.15;;;19.20;99.90;;;;;;5127540;27;20990;-79
2021/06/06 07:08:53;;;;;;;10.52;8.20;;;19.20;99.90;;;;;;5111510;28;20027;-78
2021/06/06 07:11:20;;;;;;;7.65;6.88;;;19.20;99.90;;;;;;5112460;28;20107;-82
2021/06/06 07:13:47;;;;;;;8.00;7.20;;;19.40;99.90;;;;;;5111151;28;20028;-79
2021/06/06 07:16:13;;;;;;;6.47;5.88;;;19.40;99.90;;;;;;5110617;28;20027;-83
2021/06/06 07:18:40;;;;;;;10.50;6.25;;;19.50;99.90;;;;;;5111987;28;20024;-82
2021/06/06 07:21:09;;;;;;;4.68;4.20;;;19.50;99.90;;;;;;5110522;28;20028;-78
2021/06/06 07:23:35;;;;;;;4.93;3.63;;;19.50;99.90;;;;;;5110316;28;20383;-79
2021/06/06 07:26:06;;;;;;;4.57;3.47;;;19.50;99.90;;;;;;5110038;28;20081;-80
2021/06/06 07:28:31;;;;;;;4.80;4.25;;;19.40;99.90;;;;;;5110050;28;20016;-79
2021/06/06 07:31:00;;;;;;;4.88;4.40;;;19.30;99.90;;;;;;5109814;28;20089;-80
2021/06/06 07:33:29;;;;;;;5.70;4.65;;;19.40;99.90;;;;;;5109688;28;20093;-79
2021/06/06 07:35:56;;;;;;;5.32;4.40;;;19.40;99.90;;;;;;5110381;28;20028;-79
2021/06/06 07:38:24;;;;;;;4.32;3.92;;;19.50;99.90;;;;;;5110119;28;20024;-87
2021/06/06 07:40:51;;;;;;;4.88;4.03;;;19.60;99.90;;;;;;5110191;28;20024;-80
2021/06/06 07:43:17;;;;;;;4.68;3.95;;;19.40;99.90;;;;;;5109798;28;20024;-88
2021/06/06 07:45:43;;;;;;;5.10;4.60;;;19.40;99.90;;;;;;5109656;28;20038;-82
2021/06/06 07:48:10;;;;;;;4.78;4.38;;;19.30;99.90;;;;;;5110098;28;20493;-80
2021/06/06 07:50:39;;;;;;;5.25;4.13;;;19.30;99.90;;;;;;5111321;28;20080;-81
2021/06/06 07:53:05;;;;;;;5.13;4.60;;;19.30;99.90;;;;;;5109025;28;20024;-79
2021/06/06 07:55:32;;;;;;;4.78;4.38;;;19.20;99.90;;;;;;5101348;28;20367;-78
2021/06/06 07:57:58;;;;;;;5.15;3.88;;;19.20;99.90;;;;;;5108813;28;20016;-80
2021/06/06 08:00:30;;;;;;;5.20;4.50;;;19.20;99.90;;;;;;5107456;28;20028;-78
2021/06/06 08:02:56;;;;;;;6.40;5.28;;;19.30;99.90;;;;;;5108602;28;20034;-79
2021/06/06 08:05:23;;;;;;;11.98;10.80;;;19.30;99.90;;;;;;5107549;28;20513;-80
2021/06/06 08:07:49;;;;;;;7.45;6.72;;;19.30;99.90;;;;;;5109517;28;20026;-79
2021/06/06 08:10:18;;;;;;;14.50;10.30;;;19.30;99.90;;;;;;5109378;28;20032;-78
2021/06/06 08:12:44;;;;;;;8.43;7.63;;;19.30;99.90;;;;;;5109215;28;20020;-79
2021/06/06 08:15:11;;;;;;;6.32;5.72;;;19.40;99.90;;;;;;5109351;28;20031;-78
2021/06/06 08:17:38;;;;;;;5.22;4.72;;;19.30;99.90;;;;;;5096145;28;20344;-80
2021/06/06 08:20:18;;;;;;;4.78;4.38;;;19.20;99.90;;;;;;5096632;28;20069;-79
2021/06/06 08:22:43;;;;;;;5.50;5.00;;;19.10;99.90;;;;;;5096872;28;20020;-79
2021/06/06 08:25:11;;;;;;;7.72;6.82;;;19.10;99.90;;;;;;5095156;28;20502;-79
2021/06/06 08:27:39;;;;;;;6.55;5.95;;;19.10;99.90;;;;;;5094767;28;20063;-80
2021/06/06 08:30:09;;;;;;;7.32;6.65;;;19.00;99.90;;;;;;5094817;28;20419;-80
2021/06/06 08:32:35;;;;;;;8.00;7.20;;;18.90;99.90;;;;;;5095067;28;20149;-79
2021/06/06 08:35:01;;;;;;;8.20;7.40;;;18.80;99.90;;;;;;5094469;28;20118;-86
2021/06/06 08:37:27;;;;;;;6.80;5.80;;;18.80;99.90;;;;;;5075566;28;20028;-82
2021/06/06 08:39:53;;;;;;;7.80;7.00;;;18.80;99.90;;;;;;5075398;28;20036;-80
2021/06/06 08:42:27;;;;;;;7.45;6.80;;;18.70;99.90;;;;;;5075682;28;20021;-80
2021/06/06 08:45:13;;;;;;;6.82;5.43;;;18.70;99.90;;;;;;5075177;28;20532;-80
2021/06/06 08:47:40;;;;;;;6.60;6.10;;;18.70;99.90;;;;;;5074392;28;20068;-77
2021/06/06 08:50:13;;;;;;;7.78;7.15;;;18.70;99.90;;;;;;5073417;28;20024;-78
2021/06/06 08:52:54;;;;;;;6.88;6.05;;;18.70;99.90;;;;;;5073623;28;20020;-78
2021/06/06 08:55:56;;;;;;;7.43;6.80;;;18.70;99.90;;;;;;5073475;28;20020;-79
2021/06/06 08:58:44;;;;;;;7.43;6.60;;;18.60;99.90;;;;;;5090548;28;20149;-79
2021/06/06 09:01:21;;;;;;;7.20;6.38;;;18.60;99.90;;;;;;5073205;28;20047;-78
2021/06/06 09:03:49;;;;;;;9.55;6.60;;;18.60;99.90;;;;;;5073996;28;20090;-80
2021/06/06 09:06:23;;;;;;;7.00;6.35;;;18.60;99.90;;;;;;5073141;28;20499;-87
2021/06/06 09:08:49;;;;;;;7.47;6.05;;;18.60;99.90;;;;;;5074276;28;20032;-84
2021/06/06 09:11:20;;;;;;;10.93;5.82;;;18.60;99.90;;;;;;5080815;28;20025;-86
2021/06/06 09:13:46;;;;;;;6.32;4.47;;;18.60;99.90;;;;;;5075059;28;20069;-90
2021/06/06 09:16:20;;;;;;;5.05;3.83;;;18.60;99.90;;;;;;5074837;28;20024;-84
2021/06/06 09:18:47;;;;;;;4.63;4.22;;;18.50;99.90;;;;;;5074713;28;20395;-85
2021/06/06 09:21:20;;;;;;;4.88;3.88;;;18.50;99.90;;;;;;5074443;28;20020;-86
2021/06/06 09:23:48;;;;;;;4.95;4.30;;;18.30;99.90;;;;;;5074442;28;20028;-84
2021/06/06 09:26:17;;;;;;;5.80;4.35;;;18.20;99.90;;;;;;5074657;28;20082;-85
2021/06/06 09:28:48;;;;;;;4.63;4.22;;;18.20;99.90;;;;;;5073743;28;20032;-87
2021/06/06 09:31:16;;;;;;;6.32;4.65;;;18.20;99.90;;;;;;5074363;28;20168;-81
2021/06/06 09:33:42;;;;;;;5.50;4.88;;;18.20;99.90;;;;;;5073542;28;20027;-80
2021/06/06 09:36:26;;;;;;;5.30;3.08;;;18.40;99.90;;;;;;5074371;28;20107;-81
2021/06/06 09:39:01;;;;;;;3.25;2.75;;;18.30;99.90;;;;;;5074236;28;20024;-87
2021/06/06 09:41:35;;;;;;;3.65;2.95;;;18.10;99.90;;;;;;5073996;28;20016;-82
2021/06/06 09:44:01;;;;;;;8.52;3.47;;;18.00;99.90;;;;;;5073889;28;20382;-82
2021/06/06 09:46:34;;;;;;;4.15;3.15;;;18.00;99.90;;;;;;5073933;28;20275;-82
2021/06/06 09:49:16;;;;;;;5.32;3.35;;;17.90;99.90;;;;;;5073767;28;20063;-81
2021/06/06 09:51:41;;;;;;;3.88;3.05;;;18.00;99.90;;;;;;5073929;28;20024;-81
2021/06/06 09:54:17;;;;;;;4.93;3.60;;;17.90;99.90;;;;;;5074044;28;20133;-81
2021/06/06 09:56:52;;;;;;;4.53;3.67;;;17.90;99.90;;;;;;5073739;28;20023;-83
2021/06/06 09:59:24;;;;;;;4.45;2.55;;;18.00;99.90;;;;;;5074133;28;20025;-80
2021/06/06 10:02:10;;;;;;;4.45;2.90;;;17.90;99.90;;;;;;5073359;28;20078;-81
2021/06/06 10:04:36;;;;;;;;;;;17.90;99.90;;;;;;5068814;28;20032;-82
2021/06/06 10:07:07;;;;;;;3.70;3.08;;;17.90;99.90;;;;;;5090311;28;20355;-87
2021/06/06 10:09:33;;;;;;;5.22;3.15;;;17.90;99.90;;;;;;5090613;28;20073;-86
2021/06/06 10:12:17;;;;;;;4.82;2.90;;;17.90;99.90;;;;;;5073897;28;20186;-85
2021/06/06 10:14:53;;;;;;;5.30;2.83;;;17.80;99.90;;;;;;5073845;28;20154;-85
2021/06/06 10:17:43;;;;;;;3.17;2.35;;;17.70;99.90;;;;;;5073431;28;20020;-86
2021/06/06 10:20:38;;;;;;;2.95;2.30;;;17.60;99.90;;;;;;5073821;28;20429;-81
2021/06/06 10:23:21;;;;;;;3.38;2.42;;;17.60;99.90;;;;;;5072622;28;20482;-78
2021/06/06 10:25:51;;;;;;;4.57;2.33;;;17.60;99.90;;;;;;5071751;28;20032;-78
2021/06/06 10:28:24;;;;;;;4.78;2.72;;;17.60;99.90;;;;;;5088398;28;20063;-78
2021/06/06 10:31:12;;;;;;;6.80;4.50;;;17.70;99.90;;;;;;5071305;28;20016;-76
2021/06/06 10:34:02;;;;;;;7.07;3.78;;;17.70;99.90;;;;;;5072314;28;20024;-76
2021/06/06 10:36:30;;;;;;;5.80;5.20;;;17.70;99.90;;;;;;5072776;28;20032;-78
2021/06/06 10:38:56;;;;;;;13.48;3.88;;;17.70;99.90;;;;;;5072248;28;20031;-79
2021/06/06 10:41:33;;;;;;;6.75;5.18;;;17.70;99.90;;;;;;5072525;28;20028;-77
2021/06/06 10:44:13;;;;;;;4.22;2.40;;;17.80;99.90;;;;;;5073302;28;20020;-80
2021/06/06 10:46:41;;;;;;;5.13;3.50;;;17.70;99.90;;;;;;5087924;28;20037;-78
2021/06/06 10:49:39;;;;;;;4.22;3.75;;;17.80;99.90;;;;;;5088161;28;20080;-79
2021/06/06 10:52:23;;;;;;;3.90;3.45;;;17.80;99.90;;;;;;5072032;28;20029;-78
2021/06/06 10:54:54;;;;;;;4.80;3.05;;;17.90;99.90;;;;;;5088271;28;20017;-77
2021/06/06 10:57:25;;;;;;;6.53;3.00;;;17.90;99.90;;;;;;5071146;28;20017;-78
2021/06/06 10:59:51;;;;;;;5.68;3.05;;;17.90;99.90;;;;;;5072244;28;20025;-78
2021/06/06 11:02:50;;;;;;;4.57;3.08;;;17.90;99.90;;;;;;5088094;28;20371;-78
2021/06/06 11:05:36;;;;;;;6.20;2.90;;;18.00;99.90;;;;;;5071772;28;20093;-77
2021/06/06 11:08:03;;;;;;;4.22;2.83;;;18.00;99.90;;;;;;5072701;28;20421;-80
2021/06/06 11:10:36;;;;;;;3.78;3.45;;;18.10;99.90;;;;;;5071183;28;20367;-79
2021/06/06 11:13:15;;;;;;;3.95;3.05;;;18.10;99.90;;;;;;5071552;28;20052;-78
2021/06/06 11:15:54;;;;;;;3.83;3.22;;;18.10;99.90;;;;;;5071610;28;20116;-81
2021/06/06 11:18:22;;;;;;;4.78;4.00;;;18.20;99.90;;;;;;5072044;28;20055;-79
2021/06/06 11:20:53;;;;;;;4.40;3.55;;;18.30;99.90;;;;;;5071996;28;20035;-78
2021/06/06 11:23:32;;;;;;;5.00;4.00;;;18.40;99.90;;;;;;5072577;28;20605;-79
2021/06/06 11:25:59;;;;;;;4.15;3.40;;;18.50;99.90;;;;;;5087892;28;20479;-82
2021/06/06 11:28:33;;;;;;;4.00;3.17;;;18.60;99.90;;;;;;5070928;28;20028;-80
2021/06/06 11:31:01;;;;;;;3.55;3.15;;;18.60;99.90;;;;;;5071795;28;20137;-75
2021/06/06 11:33:43;;;;;;;4.38;3.13;;;18.50;99.90;;;;;;5071013;28;20116;-78
2021/06/06 11:36:10;;;;;;;3.72;3.40;;;18.50;99.90;;;;;;5071399;28;20103;-80
2021/06/06 11:38:45;;;;;;;4.00;3.40;;;18.60;99.90;;;;;;5071505;28;20029;-81
2021/06/06 11:41:23;;;;;;;3.95;3.40;;;18.70;99.90;;;;;;5070594;28;20490;-79
2021/06/06 11:44:11;;;;;;;3.55;3.17;;;18.70;99.90;;;;;;5087474;28;20020;-82
2021/06/06 11:46:56;;;;;;;3.88;3.47;;;18.80;99.90;;;;;;5060506;28;20040;-78
2021/06/06 11:50:07;;;;;;;3.97;3.47;;;18.80;99.90;;;;;;5072289;28;20062;-78
2021/06/06 11:52:47;;;;;;;3.63;3.22;;;19.10;99.90;;;;;;5091063;28;20016;-79
2021/06/06 11:55:23;;;;;;;3.65;3.35;;;19.10;99.90;;;;;;5074957;28;20085;-80
2021/06/06 11:57:53;;;;;;;4.57;3.38;;;19.20;99.90;;;;;;5074120;28;20025;-78
2021/06/06 12:00:24;;;;;;;4.82;3.83;;;19.30;99.90;;;;;;5075582;28;20029;-79
2021/06/06 12:02:51;;;;;;;3.38;3.03;;;19.40;99.90;;;;;;5074206;28;20020;-79
2021/06/06 12:05:29;;;;;;;6.07;3.15;;;19.50;99.90;;;;;;5074016;28;20505;-79
2021/06/06 12:08:13;;;;;;;3.70;3.40;;;19.60;99.90;;;;;;5074472;28;20108;-78
2021/06/06 12:10:54;;;;;;;3.70;3.40;;;19.50;99.90;;;;;;5074405;28;20032;-78
2021/06/06 12:13:25;;;;;;;3.90;3.58;;;19.70;99.90;;;;;;5074793;28;20020;-78
2021/06/06 12:16:18;;;;;;;14.38;13.07;;;19.80;99.90;;;;;;5075601;28;20048;-77
2021/06/06 12:18:47;;;;;;;39.03;35.40;;;19.90;99.90;;;;;;5074505;28;20372;-78
2021/06/06 12:21:18;;;;;;;56.75;42.13;;;20.10;99.90;;;;;;5073586;28;20383;-79
2021/06/06 12:23:47;;;;;;;18.77;17.08;;;20.30;99.90;;;;;;5075097;28;20069;-78
2021/06/06 12:26:19;;;;;;;4.97;4.47;;;20.30;99.90;;;;;;5075480;28;20093;-83
2021/06/06 12:28:49;;;;;;;10.23;9.43;;;20.40;99.90;;;;;;5074701;28;20036;-78
2021/06/06 12:31:27;;;;;;;3.38;3.08;;;20.30;99.90;;;;;;5074123;28;20471;-79
2021/06/06 12:33:54;;;;;;;9.68;8.88;;;20.30;99.90;;;;;;5075195;28;20024;-78
2021/06/06 12:36:32;;;;;;;13.57;12.27;;;20.40;99.90;;;;;;5075276;28;20017;-81
2021/06/06 12:39:01;;;;;;;5.32;4.82;;;20.40;99.90;;;;;;5076907;28;20475;-79
2021/06/06 12:41:28;;;;;;;4.10;2.58;;;20.50;99.90;;;;;;5074973;28;20032;-79
2021/06/06 12:43:56;;;;;;;4.60;4.07;;;20.60;99.90;;;;;;5074996;28;20029;-77
2021/06/06 12:46:24;;;;;;;5.40;4.20;;;20.50;99.90;;;;;;5075097;28;20036;-80
2021/06/06 12:49:00;;;;;;;2.95;2.55;;;20.50;99.90;;;;;;5075881;28;20475;-78
2021/06/06 12:51:49;;;;;;;5.63;2.83;;;20.50;99.90;;;;;;5074705;28;20029;-79
2021/06/06 12:54:18;;;;;;;4.85;2.83;;;20.60;99.90;;;;;;5075005;28;20028;-79
2021/06/06 12:56:46;;;;;;;3.15;2.83;;;20.60;99.90;;;;;;5073482;28;20058;-78
2021/06/06 12:59:19;;;;;;;4.45;3.53;;;20.60;99.90;;;;;;5075101;28;20383;-79
2021/06/06 13:01:46;;;;;;;3.80;3.50;;;20.60;99.90;;;;;;5075091;28;20028;-78
2021/06/06 13:04:17;;;;;;;4.07;2.90;;;20.60;99.90;;;;;;5074046;28;20556;-78
2021/06/06 13:06:44;;;;;;;3.10;2.80;;;20.70;99.90;;;;;;5091753;28;20028;-78